Carnival Splendor — 3EUS — position and weather

sailwx.info

Track history (hours):
 
Tides and Currents Weather Stations Pressure Air Temp Water Temp Dewpoint Dewpoint Depression Visibility Wind Speed Wind Dir Waves Ship Positions

Carnival Splendor

Last reported at 2014-Aug-21 15:11 UTC. Time now 2014-Aug-23 19:15 UTC.
Position N 35°18' W 072°39'.

Length 289 m; draft 8.3 m.

Type: Ship. MMSI: 372808000.

Date/timePositionNaut miles runAvg speedWind from/ knotsBaromVisibWave heightAir tempDewpointWater temp
2014-Aug-21 15:11N 35°18' W 072°39'1118.2
2014-Aug-21 14:34N 35°29' W 072°40'1919.4
2014-Aug-21 13:34N 35°49' W 072°43'1818.3
2014-Aug-21 12:34N 36°07' W 072°45'1220.4
2014-Aug-21 12:00N 36°18' W 072°42'818.0 070 / 151015.010.8 2.026.017.027.0
2014-Aug-21 11:34N 36°24' W 072°48'1717.2
2014-Aug-21 10:34N 36°41' W 072°50'1817.8
2014-Aug-21 09:34N 36°59' W 072°53'2019.9
2014-Aug-21 08:34N 37°19' W 072°56'2120.9
2014-Aug-21 07:34N 37°39' W 072°59'2120.9
2014-Aug-21 06:34N 38°00' W 073°02'2020.1
2014-Aug-21 05:34N 38°20' W 073°04'1919.2
2014-Aug-21 04:33N 38°39' W 073°07'1918.9
2014-Aug-21 03:34N 38°58' W 073°10'1919.1
2014-Aug-21 02:34N 39°17' W 073°13'1919.1
2014-Aug-21 01:34N 39°36' W 073°15'1919.2
2014-Aug-21 00:34N 39°55' W 073°17'1918.8
2014-Aug-20 23:34N 40°10' W 073°32'1918.5
2014-Aug-20 22:33N 40°25' W 073°47'1414.0
2014-Aug-20 21:34N 40°33' W 074°02'1313.0
2014-Aug-20 20:33N 40°46' W 074°01'1 0.5
2014-Aug-20 19:28N 40°46' W 073°60'0 0.0
2014-Aug-20 16:27N 40°46' W 073°60'0 0.0
2014-Aug-20 15:29N 40°46' W 073°60'0 0.0
2014-Aug-20 14:33N 40°46' W 073°60'0 0.0
2014-Aug-20 13:29N 40°46' W 073°60'0 0.0
2014-Aug-20 12:32N 40°46' W 073°60'0 0.0
2014-Aug-20 11:31N 40°46' W 073°60'0 0.4
2014-Aug-20 10:34N 40°46' W 074°00'1110.5
2014-Aug-20 09:33N 40°35' W 074°02'1313.2
2014-Aug-20 08:33N 40°27' W 073°49'9 9.3
2014-Aug-20 07:33N 40°18' W 073°46'1615.6
2014-Aug-20 06:33N 40°03' W 073°43'1616.2
2014-Aug-20 05:33N 39°47' W 073°40'1716.7
2014-Aug-20 04:33N 39°30' W 073°41'1616.5
2014-Aug-20 03:33N 39°14' W 073°42'1616.2
2014-Aug-20 02:33N 38°57' W 073°44'1616.0
2014-Aug-20 01:33N 38°41' W 073°45'1615.7
2014-Aug-20 00:33N 38°26' W 073°48'1312.6
2014-Aug-19 23:34N 38°13' W 073°50'813.5
2014-Aug-19 23:00N 38°06' W 073°48'4 8.9 070 / 241010.010.8 2.024.016.027.0
2014-Aug-19 22:34N 38°04' W 073°52'10 9.8
2014-Aug-19 21:32N 37°54' W 073°54'7313.1
2014-Aug-19 16:00N 36°42' W 074°06'27916.4 250 / 71009.0 23.022.026.0
2014-Aug-18 23:00N 32°06' W 074°54'21816.7 220 / 261013.010.8 1.027.021.027.0
2014-Aug-18 10:00N 28°36' W 076°00'228 6.5 240 / 131017.010.8 0.527.021.027.0
2014-Aug-16 23:00N 24°48' W 075°54'43 3.6 090 / 111018.010.8 0.530.025.029.0
2014-Aug-16 11:00N 24°06' W 075°42'310 7.0 130 / 191018.0 5.4 1.028.022.029.0
2014-Aug-14 15:00N 27°54' W 071°48'6616.6 260 / 101018.0 27.018.022.0
2014-Aug-14 11:00N 29°00' W 071°54'53018.9 260 / 141017.010.816.0 28.0
2014-Aug-13 07:00N 37°48' W 072°54'4121.5 230 / 341007.0 3.025.424.026.0
2014-Aug-13 05:05N 38°28' W 073°04'2818.4
2014-Aug-13 03:32N 38°56' W 073°10'1918.7
2014-Aug-13 02:33N 39°15' W 073°12'1919.6
2014-Aug-13 01:34N 39°34' W 073°15'2019.7
2014-Aug-13 00:33N 39°54' W 073°18'1919.5
2014-Aug-12 23:34N 40°10' W 073°31'1818.2
2014-Aug-12 22:34N 40°24' W 073°47'1212.0
2014-Aug-12 21:34N 40°31' W 073°59'1413.5
2014-Aug-12 20:33N 40°44' W 074°01'2 0.6
2014-Aug-12 17:24N 40°46' W 073°60'  
Track history (hours):
 
Tides and Currents Weather Stations Pressure Air Temp Water Temp Dewpoint Dewpoint Depression Visibility Wind Speed Wind Dir Waves Ship Positions

Carnival Splendor

Last reported at 2014-Aug-21 15:11 UTC. Time now 2014-Aug-23 19:15 UTC.
Position N 35°18' W 072°39'.

Length 289 m; draft 8.3 m.

Type: Ship. MMSI: 372808000.

Date/timePositionNaut miles runAvg speedWind from/ knotsBaromVisibWave heightAir tempDewpointWater temp
2014-Aug-21 15:11N 35°18' W 072°39'1118.2
2014-Aug-21 14:34N 35°29' W 072°40'1919.4
2014-Aug-21 13:34N 35°49' W 072°43'1818.3
2014-Aug-21 12:34N 36°07' W 072°45'1220.4
2014-Aug-21 12:00N 36°18' W 072°42'818.0 070 / 151015.010.8 2.026.017.027.0
2014-Aug-21 11:34N 36°24' W 072°48'1717.2
2014-Aug-21 10:34N 36°41' W 072°50'1817.8
2014-Aug-21 09:34N 36°59' W 072°53'2019.9
2014-Aug-21 08:34N 37°19' W 072°56'2120.9
2014-Aug-21 07:34N 37°39' W 072°59'2120.9
2014-Aug-21 06:34N 38°00' W 073°02'2020.1
2014-Aug-21 05:34N 38°20' W 073°04'1919.2
2014-Aug-21 04:33N 38°39' W 073°07'1918.9
2014-Aug-21 03:34N 38°58' W 073°10'1919.1
2014-Aug-21 02:34N 39°17' W 073°13'1919.1
2014-Aug-21 01:34N 39°36' W 073°15'1919.2
2014-Aug-21 00:34N 39°55' W 073°17'1918.8
2014-Aug-20 23:34N 40°10' W 073°32'1918.5
2014-Aug-20 22:33N 40°25' W 073°47'1414.0
2014-Aug-20 21:34N 40°33' W 074°02'1313.0
2014-Aug-20 20:33N 40°46' W 074°01'1 0.5
2014-Aug-20 19:28N 40°46' W 073°60'0 0.0
2014-Aug-20 16:27N 40°46' W 073°60'0 0.0
2014-Aug-20 15:29N 40°46' W 073°60'0 0.0
2014-Aug-20 14:33N 40°46' W 073°60'0 0.0
2014-Aug-20 13:29N 40°46' W 073°60'0 0.0
2014-Aug-20 12:32N 40°46' W 073°60'0 0.0
2014-Aug-20 11:31N 40°46' W 073°60'0 0.4
2014-Aug-20 10:34N 40°46' W 074°00'1110.5
2014-Aug-20 09:33N 40°35' W 074°02'1313.2
2014-Aug-20 08:33N 40°27' W 073°49'9 9.3
2014-Aug-20 07:33N 40°18' W 073°46'1615.6
2014-Aug-20 06:33N 40°03' W 073°43'1616.2
2014-Aug-20 05:33N 39°47' W 073°40'1716.7
2014-Aug-20 04:33N 39°30' W 073°41'1616.5
2014-Aug-20 03:33N 39°14' W 073°42'1616.2
2014-Aug-20 02:33N 38°57' W 073°44'1616.0
2014-Aug-20 01:33N 38°41' W 073°45'1615.7
2014-Aug-20 00:33N 38°26' W 073°48'1312.6
2014-Aug-19 23:34N 38°13' W 073°50'813.5
2014-Aug-19 23:00N 38°06' W 073°48'4 8.9 070 / 241010.010.8 2.024.016.027.0
2014-Aug-19 22:34N 38°04' W 073°52'10 9.8
2014-Aug-19 21:32N 37°54' W 073°54'7313.1
2014-Aug-19 16:00N 36°42' W 074°06'27916.4 250 / 71009.0 23.022.026.0
2014-Aug-18 23:00N 32°06' W 074°54'21816.7 220 / 261013.010.8 1.027.021.027.0
2014-Aug-18 10:00N 28°36' W 076°00'228 6.5 240 / 131017.010.8 0.527.021.027.0
2014-Aug-16 23:00N 24°48' W 075°54'43 3.6 090 / 111018.010.8 0.530.025.029.0
2014-Aug-16 11:00N 24°06' W 075°42'310 7.0 130 / 191018.0 5.4 1.028.022.029.0
2014-Aug-14 15:00N 27°54' W 071°48'6616.6 260 / 101018.0 27.018.022.0
2014-Aug-14 11:00N 29°00' W 071°54'53018.9 260 / 141017.010.816.0 28.0
2014-Aug-13 07:00N 37°48' W 072°54'4121.5 230 / 341007.0 3.025.424.026.0
2014-Aug-13 05:05N 38°28' W 073°04'2818.4
2014-Aug-13 03:32N 38°56' W 073°10'1918.7
2014-Aug-13 02:33N 39°15' W 073°12'1919.6
2014-Aug-13 01:34N 39°34' W 073°15'2019.7
2014-Aug-13 00:33N 39°54' W 073°18'1919.5
2014-Aug-12 23:34N 40°10' W 073°31'1818.2
2014-Aug-12 22:34N 40°24' W 073°47'1212.0
2014-Aug-12 21:34N 40°31' W 073°59'1413.5
2014-Aug-12 20:33N 40°44' W 074°01'2 0.6
2014-Aug-12 17:24N 40°46' W 073°60'  

Dump ship's entire track history